createdAt,value
2023-02-25T00:04:04.046Z,98391.56
2023-02-25T00:09:11.277Z,98398.28
2023-02-25T00:14:14.414Z,98390.81
2023-02-25T00:19:17.723Z,98402.59
2023-02-25T00:24:20.869Z,98408.28
2023-02-25T00:29:23.824Z,98394.53
2023-02-25T00:34:26.776Z,98374.16
2023-02-25T00:39:42.173Z,98369.47
2023-02-25T00:44:50.924Z,98353.28
2023-02-25T00:49:53.666Z,98343.56
2023-02-25T00:54:57.627Z,98344.13
2023-02-25T01:00:01.237Z,98320.06
2023-02-25T01:05:05.689Z,98314.63
2023-02-25T01:10:10.794Z,98300.75
2023-02-25T01:15:14.014Z,98286.47
2023-02-25T01:20:20.139Z,98275.50
2023-02-25T01:25:25.773Z,98282.66
2023-02-25T01:30:28.730Z,98275.03
2023-02-25T01:35:31.634Z,98268.53
2023-02-25T01:40:34.552Z,98271.59
2023-02-25T01:45:42.473Z,98251.25
2023-02-25T01:51:05.255Z,98247.22
2023-02-25T01:56:11.950Z,98235.28
2023-02-25T02:01:18.385Z,98222.50
2023-02-25T02:06:31.393Z,98228.59
2023-02-25T02:11:34.501Z,98230.56
2023-02-25T02:17:14.400Z,98227.78
2023-02-25T02:22:38.527Z,98201.81
2023-02-25T02:28:20.982Z,98176.19
2023-02-25T02:34:03.592Z,98175.53
2023-02-25T02:39:31.575Z,98180.25
2023-02-25T02:44:53.414Z,98169.44
2023-02-25T02:50:33.848Z,98179.19
2023-02-25T02:55:46.073Z,98188.00
2023-02-25T03:00:58.055Z,98177.31
2023-02-25T03:06:00.862Z,98183.94
2023-02-25T03:11:05.815Z,98197.88
2023-02-25T03:16:19.807Z,98187.94
2023-02-25T03:21:30.684Z,98197.22
2023-02-25T03:26:34.978Z,98197.44
2023-02-25T03:31:46.670Z,98197.44
2023-02-25T03:37:00.779Z,98192.78
2023-02-25T03:42:07.551Z,98200.09
2023-02-25T03:47:12.761Z,98210.09
2023-02-25T03:52:21.855Z,98198.94
2023-02-25T03:57:33.911Z,98203.44
2023-02-25T04:02:37.266Z,98206.69
2023-02-25T04:07:40.811Z,98200.81
2023-02-25T04:12:43.796Z,98195.94
2023-02-25T04:17:47.288Z,98193.72
2023-02-25T04:22:50.674Z,98209.19
2023-02-25T04:27:53.848Z,98229.13
2023-02-25T04:32:56.719Z,98251.13
2023-02-25T04:37:59.655Z,98250.72
2023-02-25T04:43:02.725Z,98256.34
2023-02-25T04:48:06.042Z,98251.63
2023-02-25T04:53:09.360Z,98246.53
2023-02-25T04:58:13.132Z,98261.53
2023-02-25T05:03:16.556Z,98280.19
2023-02-25T05:08:19.657Z,98283.00
2023-02-25T05:13:23.533Z,98290.44
2023-02-25T05:18:26.482Z,98285.69
2023-02-25T05:23:29.596Z,98303.72
2023-02-25T05:28:33.262Z,98303.38
2023-02-25T05:33:37.753Z,98296.47
2023-02-25T05:38:41.522Z,98299.28
2023-02-25T05:43:46.007Z,98317.34
2023-02-25T05:48:49.852Z,98309.84
2023-02-25T05:53:53.084Z,98329.16
2023-02-25T05:58:57.185Z,98352.50
2023-02-25T06:04:00.210Z,98356.59
2023-02-25T06:09:06.070Z,98369.13
2023-02-25T06:14:08.793Z,98368.44
2023-02-25T06:19:12.294Z,98370.69
2023-02-25T06:24:16.361Z,98390.03
2023-02-25T06:29:19.623Z,98378.69
2023-02-25T06:34:22.577Z,98390.03
2023-02-25T06:39:25.700Z,98390.84
2023-02-25T06:44:29.562Z,98395.78
2023-02-25T06:49:32.392Z,98416.66
2023-02-25T06:54:35.499Z,98433.28
2023-02-25T06:59:38.436Z,98438.06
2023-02-25T07:04:43.855Z,98450.41
2023-02-25T07:09:47.151Z,98479.56
2023-02-25T07:14:50.693Z,98475.91
2023-02-25T07:19:53.550Z,98485.41
2023-02-25T07:24:56.598Z,98457.56
2023-02-25T07:30:01.473Z,98460.63
2023-02-25T07:35:05.295Z,98465.16
2023-02-25T07:40:13.067Z,98450.09
2023-02-25T07:45:16.155Z,98441.28
2023-02-25T07:50:19.239Z,98439.94
2023-02-25T07:55:22.289Z,98450.78
2023-02-25T08:00:25.333Z,98454.03
2023-02-25T08:05:28.271Z,98466.22
2023-02-25T08:10:31.565Z,98463.38
2023-02-25T08:15:35.046Z,98448.78
2023-02-25T08:20:38.607Z,98467.22
2023-02-25T08:25:41.917Z,98460.41
2023-02-25T08:30:45.379Z,98484.06
2023-02-25T08:35:48.291Z,98475.63
2023-02-25T08:40:51.344Z,98469.03
2023-02-25T08:45:56.707Z,98481.00
2023-02-25T08:51:10.972Z,98496.63
2023-02-25T08:56:16.474Z,98482.75
2023-02-25T09:01:19.719Z,98513.03
2023-02-25T09:06:27.988Z,98495.06
2023-02-25T09:11:32.527Z,98500.63
2023-02-25T09:16:35.606Z,98509.34
2023-02-25T09:21:42.894Z,98496.28
2023-02-25T09:26:47.527Z,98510.00
2023-02-25T09:31:51.109Z,98545.38
2023-02-25T09:36:54.224Z,98539.00
2023-02-25T09:42:09.562Z,98511.38
2023-02-25T09:47:52.866Z,98477.53
2023-02-25T09:53:16.345Z,98478.06
2023-02-25T09:58:41.520Z,98475.88
2023-02-25T10:03:53.416Z,98456.63
2023-02-25T10:09:26.846Z,98461.94
2023-02-25T10:14:45.140Z,98461.72
2023-02-25T10:20:07.171Z,98459.16
2023-02-25T10:25:26.740Z,98475.50
2023-02-25T10:31:07.616Z,98481.00
2023-02-25T10:36:17.326Z,98490.09
2023-02-25T10:41:26.671Z,98503.41
2023-02-25T10:47:05.200Z,98503.75
2023-02-25T10:52:17.751Z,98469.75
2023-02-25T10:57:28.838Z,98479.06
2023-02-25T11:02:43.015Z,98484.09
2023-02-25T11:07:49.706Z,98494.72
2023-02-25T11:12:57.274Z,98489.78
2023-02-25T11:18:27.324Z,98479.97
2023-02-25T11:23:47.160Z,98494.19
2023-02-25T11:28:50.963Z,98473.50
2023-02-25T11:33:59.386Z,98468.19
2023-02-25T11:39:17.382Z,98449.88
2023-02-25T11:44:43.586Z,98456.41
2023-02-25T11:49:58.514Z,98462.75
2023-02-25T11:55:36.440Z,98441.66
2023-02-25T12:01:14.537Z,98466.06
2023-02-25T12:07:09.410Z,98452.66
2023-02-25T12:12:52.005Z,98474.28
2023-02-25T12:18:36.522Z,98484.91
2023-02-25T12:24:10.591Z,98480.66
2023-02-25T12:30:04.378Z,98473.06
2023-02-25T12:35:34.387Z,98484.03
2023-02-25T12:41:32.772Z,98502.03
2023-02-25T12:46:49.084Z,98501.56
2023-02-25T12:52:17.386Z,98504.97
2023-02-25T12:57:29.656Z,98503.97
2023-02-25T13:03:21.415Z,98499.03
2023-02-25T13:08:51.268Z,98510.38
2023-02-25T13:14:19.656Z,98508.81
2023-02-25T13:19:39.575Z,98512.16
2023-02-25T13:24:51.800Z,98514.53
2023-02-25T13:30:47.263Z,98519.72
2023-02-25T13:36:18.887Z,98520.56
2023-02-25T13:41:53.386Z,98519.81
2023-02-25T13:47:00.160Z,98520.50
2023-02-25T13:52:24.619Z,98527.25
2023-02-25T13:57:48.744Z,98524.97
2023-02-25T14:03:36.012Z,98507.72
2023-02-25T14:09:14.279Z,98538.19
2023-02-25T14:14:45.195Z,98547.03
2023-02-25T14:20:06.650Z,98539.25
2023-02-25T14:25:21.023Z,98532.66
2023-02-25T14:30:49.133Z,98539.09
2023-02-25T14:36:13.547Z,98539.53
2023-02-25T14:41:39.135Z,98520.81
2023-02-25T14:46:54.798Z,98485.09
2023-02-25T14:52:19.127Z,98494.47
2023-02-25T14:58:00.438Z,98540.97
2023-02-25T15:03:22.462Z,98541.63
2023-02-25T15:08:34.151Z,98530.75
2023-02-25T15:13:49.088Z,98529.84
2023-02-25T15:19:08.505Z,98556.38
2023-02-25T15:24:39.470Z,98547.53
2023-02-25T15:29:45.500Z,98543.38
2023-02-25T15:35:01.748Z,98548.50
2023-02-25T15:40:16.911Z,98556.88
2023-02-25T15:45:29.003Z,98556.50
2023-02-25T15:50:43.730Z,98575.25
2023-02-25T15:56:10.362Z,98591.69
2023-02-25T16:01:29.610Z,98582.09
2023-02-25T16:06:42.093Z,98596.00
2023-02-25T16:11:53.664Z,98591.19
2023-02-25T16:17:01.023Z,98598.66
2023-02-25T16:22:18.172Z,98596.56
2023-02-25T16:28:05.346Z,98586.34
2023-02-25T16:33:48.368Z,98597.78
2023-02-25T16:39:07.233Z,98607.94
2023-02-25T16:44:17.277Z,98623.75
2023-02-25T16:49:37.445Z,98628.44
2023-02-25T16:54:40.779Z,98644.25
2023-02-25T16:59:43.693Z,98639.66
2023-02-25T17:04:54.308Z,98652.50
2023-02-25T17:10:00.894Z,98663.84
2023-02-25T17:15:31.865Z,98665.16
2023-02-25T17:20:36.063Z,98677.00
2023-02-25T17:25:44.009Z,98671.06
2023-02-25T17:30:47.502Z,98706.75
2023-02-25T17:35:53.907Z,98731.44
2023-02-25T17:40:57.170Z,98732.75
2023-02-25T17:46:03.650Z,98716.63
2023-02-25T17:51:08.365Z,98718.97
2023-02-25T17:56:25.127Z,98729.66
2023-02-25T18:01:44.512Z,98715.00
2023-02-25T18:06:47.761Z,98700.06
2023-02-25T18:11:57.020Z,98698.28
2023-02-25T18:17:01.143Z,98713.22
2023-02-25T18:22:06.240Z,98726.03
2023-02-25T18:27:41.850Z,98736.06
2023-02-25T18:32:47.102Z,98746.56
2023-02-25T18:37:52.959Z,98724.38
2023-02-25T18:42:56.906Z,98717.13
2023-02-25T18:48:03.477Z,98731.91
2023-02-25T18:53:06.518Z,98772.09
2023-02-25T18:58:18.121Z,98764.72
2023-02-25T19:03:36.397Z,98799.00
2023-02-25T19:08:39.152Z,98789.47
2023-02-25T19:13:43.545Z,98831.97
2023-02-25T19:18:47.500Z,98821.63
2023-02-25T19:23:55.520Z,98836.22
2023-02-25T19:28:58.550Z,98840.00
2023-02-25T19:34:01.495Z,98849.16
2023-02-25T19:39:06.307Z,98834.53
2023-02-25T19:44:09.456Z,98820.59
2023-02-25T19:49:12.814Z,98820.06
2023-02-25T19:54:15.801Z,98812.50
2023-02-25T19:59:18.656Z,98806.56
2023-02-25T20:04:22.610Z,98798.34
2023-02-25T20:09:25.513Z,98803.41
2023-02-25T20:14:29.352Z,98840.75
2023-02-25T20:19:35.323Z,98821.53
2023-02-25T20:24:38.387Z,98850.19
2023-02-25T20:29:41.513Z,98834.06
2023-02-25T20:34:44.726Z,98847.31
2023-02-25T20:39:55.605Z,98843.88
2023-02-25T20:44:59.847Z,98822.75
2023-02-25T20:50:05.937Z,98826.03
2023-02-25T20:55:09.602Z,98847.03
2023-02-25T21:00:16.695Z,98828.50
2023-02-25T21:05:19.754Z,98853.94
2023-02-25T21:10:23.939Z,98843.44
2023-02-25T21:15:27.324Z,98856.72
2023-02-25T21:20:30.342Z,98865.41
2023-02-25T21:25:33.554Z,98861.81
2023-02-25T21:30:36.436Z,98850.19
2023-02-25T21:35:39.477Z,98840.66
2023-02-25T21:40:42.603Z,98859.19
2023-02-25T21:45:57.486Z,98863.06
2023-02-25T21:51:01.057Z,98890.78
2023-02-25T21:56:31.042Z,98902.81
2023-02-25T22:01:38.038Z,98888.22
2023-02-25T22:06:43.145Z,98888.22
2023-02-25T22:11:46.220Z,98889.03
2023-02-25T22:16:49.156Z,98883.94
2023-02-25T22:21:52.305Z,98894.72
2023-02-25T22:26:55.343Z,98894.22
2023-02-25T22:31:58.347Z,98892.53
2023-02-25T22:37:01.163Z,98876.97
2023-02-25T22:42:04.088Z,98897.28
2023-02-25T22:47:07.023Z,98922.00
2023-02-25T22:52:10.037Z,98895.94
2023-02-25T22:57:12.998Z,98882.00
2023-02-25T23:02:16.565Z,98874.28
2023-02-25T23:07:19.556Z,98884.09
2023-02-25T23:12:22.563Z,98873.91
2023-02-25T23:17:26.842Z,98896.00
2023-02-25T23:22:31.876Z,98883.03
2023-02-25T23:27:36.539Z,98881.81
2023-02-25T23:32:42.022Z,98872.31
2023-02-25T23:37:47.089Z,98876.06
2023-02-25T23:42:50.247Z,98878.16
2023-02-25T23:47:53.605Z,98866.03
2023-02-25T23:52:56.597Z,98865.47
2023-02-25T23:57:59.571Z,98906.91
